Time;durP1;ratioP1;P1;durP2;ratioP2;P2;SDS_P1;SDS_P2;PMS_P1;PMS_P2;Temp;Humidity;BMP_temperature;BMP_pressure;BME280_temperature;BME280_humidity;BME280_pressure;Samples;Min_cycle;Max_cycle;Signal;HPM_P1;HPM_P2
2022/11/03 00:00:12;;;;;;;51.60;47.10;;;;;;;9.95;100.00;101541.72;5080352;28;20476;-82
2022/11/03 00:02:38;;;;;;;50.42;45.90;;;;;;;9.76;100.00;101551.03;5088576;28;20139;-82
2022/11/03 00:07:46;;;;;;;49.97;45.13;;;;;;;9.85;100.00;101550.75;5088932;28;20041;-83
2022/11/03 00:10:14;;;;;;;47.60;42.78;;;;;;;9.89;100.00;101555.69;5078282;28;20048;-85
2022/11/03 00:12:42;;;;;;;48.75;44.70;;;;;;;9.73;100.00;101551.38;5084671;28;20053;-84
2022/11/03 00:15:10;;;;;;;50.15;45.97;;;;;;;9.57;100.00;101561.13;5074945;28;20040;-86
2022/11/03 00:17:36;;;;;;;46.83;42.50;;;;;;;9.28;100.00;101563.66;5079800;28;20056;-86
2022/11/03 00:20:03;;;;;;;45.10;41.17;;;;;;;9.72;100.00;101571.78;5084581;28;20455;-82
2022/11/03 00:22:32;;;;;;;45.08;41.05;;;;;;;9.40;100.00;101555.13;5087149;28;20063;-85
2022/11/03 00:24:59;;;;;;;45.25;40.92;;;;;;;9.83;100.00;101571.34;5075744;28;20040;-85
2022/11/03 00:27:26;;;;;;;43.72;40.03;;;;;;;9.87;100.00;101569.16;5084169;28;20476;-85
2022/11/03 00:29:54;;;;;;;45.70;41.80;;;;;;;9.90;100.00;101573.28;5088166;28;20404;-85
2022/11/03 00:32:21;;;;;;;44.42;40.45;;;;;;;9.80;100.00;101577.03;5082789;28;20048;-85
2022/11/03 00:34:48;;;;;;;49.65;45.78;;;;;;;9.92;100.00;101582.69;5084287;28;20366;-86
2022/11/03 00:37:14;;;;;;;45.40;41.50;;;;;;;9.87;100.00;101582.44;5084519;28;20048;-85
2022/11/03 00:39:41;;;;;;;51.00;46.95;;;;;;;9.84;100.00;101591.56;5082473;28;20049;-83
2022/11/03 00:42:08;;;;;;;47.35;43.42;;;;;;;9.64;100.00;101588.56;5086683;28;20044;-83
2022/11/03 00:44:35;;;;;;;45.47;41.20;;;;;;;9.79;100.00;101593.94;5082217;28;20045;-83
2022/11/03 00:47:03;;;;;;;47.97;43.83;;;;;;;9.62;100.00;101587.94;5085514;28;20124;-84
2022/11/03 00:49:29;;;;;;;50.08;45.85;;;;;;;9.69;100.00;101585.41;5088942;28;20079;-85
2022/11/03 00:51:56;;;;;;;50.85;46.45;;;;;;;9.50;100.00;101580.56;5083180;28;20055;-83
2022/11/03 00:54:23;;;;;;;53.13;48.65;;;;;;;9.68;100.00;101581.09;5077920;28;20385;-83
2022/11/03 00:56:50;;;;;;;49.20;44.90;;;;;;;9.79;100.00;101579.84;5081108;28;20048;-84
2022/11/03 00:59:16;;;;;;;52.47;48.25;;;;;;;9.85;100.00;101582.59;5088411;28;20052;-82
2022/11/03 01:01:45;;;;;;;54.92;50.38;;;;;;;9.79;100.00;101574.53;5184158;22;20049;-84
2022/11/03 01:07:00;;;;;;;50.65;46.42;;;;;;;9.69;100.00;101572.13;5047043;28;20036;-84
2022/11/03 01:09:35;;;;;;;52.10;47.60;;;;;;;9.74;100.00;101571.59;5046935;28;20049;-84
2022/11/03 01:12:05;;;;;;;51.50;47.13;;;;;;;9.66;100.00;101575.16;5034436;28;20053;-85
2022/11/03 01:14:33;;;;;;;52.83;48.10;;;;;;;9.58;100.00;101564.59;5038375;28;20045;-84
2022/11/03 01:17:04;;;;;;;48.10;44.35;;;;;;;9.92;100.00;101566.78;5051063;28;20048;-84
2022/11/03 01:19:32;;;;;;;49.95;46.20;;;;;;;11.05;100.00;101567.47;5048801;28;20455;-82
2022/11/03 01:22:00;;;;;;;52.47;47.97;;;;;;;11.90;100.00;101577.28;5052592;28;20108;-82
2022/11/03 01:24:34;;;;;;;51.00;47.15;;;;;;;12.24;100.00;101567.66;5047448;28;20413;-82
2022/11/03 01:27:03;;;;;;;46.60;43.17;;;;;;;12.32;100.00;101576.31;5042517;28;20049;-82
2022/11/03 01:29:31;;;;;;;46.78;42.95;;;;;;;12.38;100.00;101577.38;5033932;28;20382;-85
2022/11/03 01:31:58;;;;;;;51.85;47.47;;;;;;;12.37;100.00;101576.56;5036083;28;20053;-83
2022/11/03 01:34:25;;;;;;;46.13;42.45;;;;;;;12.58;100.00;101586.28;5045956;28;20053;-84
2022/11/03 01:36:53;;;;;;;45.15;41.35;;;;;;;12.57;100.00;101584.66;5053201;28;20041;-82
2022/11/03 01:39:21;;;;;;;47.70;43.60;;;;;;;12.68;100.00;101585.94;5039304;28;20053;-84
2022/11/03 01:41:49;;;;;;;43.90;40.35;;;;;;;12.68;100.00;101585.94;5049091;28;20041;-84
2022/11/03 01:44:33;;;;;;;46.47;42.88;;;;;;;12.75;100.00;101591.28;5033822;28;20103;-85
2022/11/03 01:47:12;;;;;;;44.92;41.15;;;;;;;12.75;100.00;101591.28;5042094;28;20477;-82
2022/11/03 01:49:44;;;;;;;46.97;43.13;;;;;;;12.81;100.00;101595.81;5035312;28;20103;-83
2022/11/03 01:52:17;;;;;;;43.25;39.65;;;;;;;12.82;100.00;101600.94;5041216;28;20042;-85
2022/11/03 01:54:48;;;;;;;48.05;44.50;;;;;;;12.80;100.00;101596.84;5065216;28;20041;-82
2022/11/03 01:57:20;;;;;;;52.95;47.83;;;;;;;12.80;100.00;101602.19;5056829;28;20045;-82
2022/11/03 01:59:48;;;;;;;51.60;47.43;;;;;;;12.79;100.00;101606.66;5055249;28;20472;-85
2022/11/03 02:02:15;;;;;;;48.63;45.22;;;;;;;12.74;100.00;101605.66;5064173;28;20052;-82
2022/11/03 02:04:43;;;;;;;57.80;53.10;;;;;;;12.73;100.00;101606.66;5062950;28;20045;-82
2022/11/03 02:07:20;;;;;;;48.95;45.25;;;;;;;12.69;100.00;101606.22;5059820;28;20057;-84
2022/11/03 02:09:46;;;;;;;45.45;41.53;;;;;;;12.62;100.00;101608.06;5041064;28;20477;-82
2022/11/03 02:12:16;;;;;;;49.50;45.72;;;;;;;12.67;100.00;101607.44;5043193;28;20050;-85
2022/11/03 02:14:49;;;;;;;48.42;44.90;;;;;;;12.68;100.00;101604.59;5047644;28;20048;-83
2022/11/03 02:17:20;;;;;;;48.40;44.70;;;;;;;12.69;100.00;101608.06;5060781;28;20048;-82
2022/11/03 02:19:52;;;;;;;47.80;44.03;;;;;;;12.65;100.00;101607.66;5064183;28;20044;-82
2022/11/03 02:22:54;;;;;;;49.97;45.53;;;;;;;12.55;100.00;101610.66;5049830;28;20045;-82
2022/11/03 02:25:46;;;;;;;43.88;40.47;;;;;;;12.55;100.00;101613.31;5038593;28;20053;-82
2022/11/03 02:28:16;;;;;;;47.23;42.93;;;;;;;12.52;100.00;101621.72;5040286;28;20535;-84
2022/11/03 02:30:49;;;;;;;49.30;45.38;;;;;;;12.52;100.00;101610.22;5044997;28;20303;-85
2022/11/03 02:33:36;;;;;;;56.97;52.63;;;;;;;12.30;100.00;101614.81;5050855;28;20064;-85
2022/11/03 02:36:11;;;;;;;46.67;42.90;;;;;;;12.40;100.00;101619.78;5044867;28;20041;-84
2022/11/03 02:38:46;;;;;;;47.35;43.75;;;;;;;12.43;100.00;101614.06;4961102;28;20112;-82
2022/11/03 02:41:16;;;;;;;51.60;47.35;;;;;;;12.23;100.00;101616.63;5028498;28;20049;-85
2022/11/03 02:43:44;;;;;;;48.88;45.53;;;;;;;12.20;100.00;101625.84;5042034;28;20484;-86
2022/11/03 02:46:14;;;;;;;45.58;41.80;;;;;;;11.97;100.00;101622.59;5045547;28;20124;-82
2022/11/03 02:48:41;;;;;;;47.58;43.83;;;;;;;11.90;100.00;101627.84;5048499;28;20049;-81
2022/11/03 02:51:08;;;;;;;51.47;47.38;;;;;;;11.95;100.00;101614.78;5048491;28;20056;-83
2022/11/03 02:53:39;;;;;;;45.60;42.03;;;;;;;11.50;100.00;101619.50;5055527;28;20118;-83
2022/11/03 02:56:11;;;;;;;45.38;41.67;;;;;;;11.65;100.00;101619.44;5044589;28;20068;-85
2022/11/03 02:58:44;;;;;;;44.67;41.30;;;;;;;11.60;100.00;101612.00;5050748;28;20068;-84
2022/11/03 03:01:14;;;;;;;47.10;43.08;;;;;;;11.35;100.00;101616.88;5046122;28;20060;-84
2022/11/03 03:03:46;;;;;;;47.78;43.80;;;;;;;11.24;100.00;101612.88;5041699;28;20056;-84
2022/11/03 03:06:21;;;;;;;46.95;43.10;;;;;;;11.16;100.00;101620.97;5046371;28;20076;-83
2022/11/03 03:08:53;;;;;;;45.33;41.65;;;;;;;11.35;100.00;101618.72;5045714;28;20053;-83
2022/11/03 03:11:35;;;;;;;45.80;42.33;;;;;;;11.48;100.00;101637.47;5046197;28;20045;-84
2022/11/03 03:14:08;;;;;;;45.60;42.15;;;;;;;11.40;100.00;101641.06;5050565;28;20049;-84
2022/11/03 03:16:41;;;;;;;47.97;44.05;;;;;;;10.97;100.00;101648.16;5046205;28;20103;-83
2022/11/03 03:19:23;;;;;;;50.75;46.80;;;;;;;10.72;100.00;101650.28;5047795;28;20477;-84
2022/11/03 03:21:54;;;;;;;49.95;46.22;;;;;;;10.62;100.00;101655.88;5047162;28;20084;-84
2022/11/03 03:24:31;;;;;;;50.25;46.55;;;;;;;10.50;100.00;101662.66;5016979;28;20215;-82
2022/11/03 03:27:01;;;;;;;51.20;46.42;;;;;;;10.67;100.00;101661.44;5044702;28;20302;-84
2022/11/03 03:29:36;;;;;;;47.90;44.17;;;;;;;10.70;100.00;101666.41;5044550;28;20061;-84
2022/11/03 03:32:08;;;;;;;53.25;49.00;;;;;;;10.67;100.00;101671.25;5044990;28;20048;-83
2022/11/03 03:34:39;;;;;;;49.47;45.42;;;;;;;10.32;100.00;101678.94;5050751;28;20140;-83
2022/11/03 03:37:08;;;;;;;49.17;45.53;;;;;;;10.30;100.00;101676.44;5044439;28;20053;-86
2022/11/03 03:39:38;;;;;;;48.35;44.28;;;;;;;9.68;100.00;101683.72;5044315;28;20049;-84
2022/11/03 03:42:09;;;;;;;55.63;51.30;;;;;;;10.07;100.00;101681.75;5046031;28;20053;-84
2022/11/03 03:44:39;;;;;;;57.50;53.20;;;;;;;9.47;100.00;101684.34;5045893;28;20126;-84
2022/11/03 03:47:12;;;;;;;57.47;52.67;;;;;;;9.59;100.00;101672.34;5044408;28;20045;-83
2022/11/03 03:49:40;;;;;;;48.83;45.03;;;;;;;9.48;100.00;101686.84;5048907;28;20053;-83
2022/11/03 03:52:09;;;;;;;52.92;48.70;;;;;;;9.42;100.00;101684.06;5045416;28;20061;-85
2022/11/03 03:54:36;;;;;;;54.00;50.05;;;;;;;9.33;100.00;101686.75;5044437;28;20049;-83
2022/11/03 03:57:05;;;;;;;58.10;53.40;;;;;;;9.36;100.00;101683.75;5046069;28;20045;-83
2022/11/03 03:59:32;;;;;;;57.95;53.05;;;;;;;8.70;100.00;101688.50;5043112;28;20128;-83
2022/11/03 04:02:01;;;;;;;58.85;53.30;;;;;;;9.11;100.00;101691.00;5041818;28;20056;-82
2022/11/03 04:04:28;;;;;;;56.85;52.55;;;;;;;9.21;100.00;101687.31;5048715;28;20073;-85
2022/11/03 04:09:35;;;;;;;65.40;60.63;;;;;;;9.00;100.00;101679.97;5038637;28;20049;-84
2022/11/03 04:23:15;;;;;;;56.70;51.90;;;;;;;8.75;100.00;101666.81;4965786;28;20057;-85
2022/11/03 04:25:47;;;;;;;55.75;51.17;;;;;;;9.05;100.00;101669.69;5002410;28;20049;-85
2022/11/03 04:28:15;;;;;;;60.38;55.53;;;;;;;8.99;100.00;101671.19;5043029;28;20050;-85
2022/11/03 04:30:42;;;;;;;56.60;51.83;;;;;;;9.08;100.00;101666.69;5050540;28;20126;-85
2022/11/03 04:33:15;;;;;;;62.58;57.33;;;;;;;9.75;100.00;101658.97;5042360;28;20450;-85
2022/11/03 04:35:43;;;;;;;;;;;;;;;9.39;100.00;101670.16;5043625;28;20139;-85
2022/11/03 04:38:21;;;;;;;68.72;62.97;;;;;;;9.94;100.00;101662.97;5039438;28;19979;-86
2022/11/03 04:40:56;;;;;;;70.03;64.35;;;;;;;10.04;100.00;101663.53;5049609;28;20572;-86
2022/11/03 04:43:29;;;;;;;64.50;59.17;;;;;;;9.90;100.00;101679.44;5050763;28;20045;-84
2022/11/03 04:45:56;;;;;;;64.07;59.08;;;;;;;9.29;100.00;101684.59;5044091;28;20041;-83
2022/11/03 04:48:25;;;;;;;58.80;53.88;;;;;;;9.60;100.00;101676.66;5052835;28;20122;-82
2022/11/03 04:50:54;;;;;;;54.05;49.65;;;;;;;8.68;100.00;101665.81;5042773;28;20056;-83
2022/11/03 04:53:22;;;;;;;54.40;49.72;;;;;;;8.97;100.00;101688.25;5045074;28;20060;-82
2022/11/03 04:55:51;;;;;;;51.53;47.28;;;;;;;8.62;100.00;101687.69;5048815;28;20480;-82
2022/11/03 04:58:20;;;;;;;53.03;48.60;;;;;;;8.72;100.00;101698.94;5049155;28;20083;-83
2022/11/03 05:00:48;;;;;;;55.80;51.35;;;;;;;8.94;100.00;101700.00;5046507;28;20055;-85
2022/11/03 05:03:20;;;;;;;52.38;48.10;;;;;;;9.03;100.00;101706.13;5038683;28;20136;-81
2022/11/03 05:05:48;;;;;;;52.60;48.17;;;;;;;9.16;100.00;101717.81;5052848;28;20041;-84
2022/11/03 05:08:17;;;;;;;45.38;41.47;;;;;;;9.39;100.00;101723.19;5043558;28;20060;-81
2022/11/03 05:10:44;;;;;;;45.80;41.45;;;;;;;8.70;100.00;101720.28;5039161;28;20061;-84
2022/11/03 05:13:17;;;;;;;49.20;44.75;;;;;;;8.80;100.00;101727.19;5050494;28;20056;-85
2022/11/03 05:15:45;;;;;;;47.38;42.88;;;;;;;8.81;100.00;101727.03;5039201;28;20111;-85
2022/11/03 05:18:18;;;;;;;51.60;46.90;;;;;;;8.92;100.00;101736.44;5051270;28;20114;-84
2022/11/03 05:20:46;;;;;;;;;;;;;;;8.94;100.00;101745.06;5049127;28;20045;-84
2022/11/03 05:23:15;;;;;;;49.28;44.35;;;;;;;9.14;100.00;101741.03;5044528;28;19921;-82
2022/11/03 05:25:45;;;;;;;46.80;42.42;;;;;;;9.28;100.00;101738.63;5046186;28;20126;-83
2022/11/03 05:28:21;;;;;;;46.67;42.13;;;;;;;9.27;100.00;101748.41;5038836;28;20516;-83
2022/11/03 05:30:49;;;;;;;45.50;41.03;;;;;;;9.27;100.00;101755.56;5048997;28;20374;-85
2022/11/03 05:33:22;;;;;;;47.10;42.05;;;;;;;10.20;100.00;101747.53;5052377;28;20060;-84
2022/11/03 05:35:49;;;;;;;49.22;43.95;;;;;;;9.87;100.00;101757.56;5035822;28;20406;-84
2022/11/03 05:38:20;;;;;;;52.40;47.30;;;;;;;9.51;100.00;101754.63;5052137;28;20435;-84
2022/11/03 05:40:50;;;;;;;54.03;48.30;;;;;;;10.00;100.00;101764.94;5044687;28;20045;-83
2022/11/03 05:43:18;;;;;;;59.58;46.13;;;;;;;9.99;100.00;101758.81;5044399;28;20052;-83
2022/11/03 05:45:47;;;;;;;49.35;44.55;;;;;;;10.39;100.00;101761.34;5052713;28;20480;-83
2022/11/03 05:48:21;;;;;;;48.05;43.50;;;;;;;10.44;100.00;101753.66;5053296;28;20088;-82
2022/11/03 05:50:50;;;;;;;48.28;43.85;;;;;;;10.36;100.00;101756.41;5050750;28;20367;-82
2022/11/03 05:53:26;;;;;;;52.45;47.65;;;;;;;10.59;100.00;101764.31;5048539;28;20401;-83
2022/11/03 05:55:56;;;;;;;49.40;45.35;;;;;;;10.31;100.00;101768.38;5053259;28;20057;-84
2022/11/03 05:58:27;;;;;;;53.40;48.05;;;;;;;10.78;100.00;101759.31;5052570;28;20114;-82
2022/11/03 06:00:56;;;;;;;55.78;50.03;;;;;;;10.97;100.00;101757.13;5043385;28;20053;-83
2022/11/03 06:03:25;;;;;;;51.15;45.85;;;;;;;11.02;100.00;101760.06;5037510;28;20059;-83
2022/11/03 06:05:52;;;;;;;53.72;44.22;;;;;;;11.02;100.00;101759.25;5037447;28;20378;-82
2022/11/03 06:08:22;;;;;;;52.22;45.33;;;;;;;10.98;100.00;101762.28;5044861;28;20056;-84
2022/11/03 06:10:51;;;;;;;62.15;45.22;;;;;;;11.18;100.00;101762.53;5040133;28;20053;-83
2022/11/03 06:13:22;;;;;;;61.25;46.47;;;;;;;11.42;100.00;101761.41;5047146;28;20449;-82
2022/11/03 06:15:54;;;;;;;56.83;47.92;;;;;;;11.59;100.00;101772.66;5040363;28;20064;-82
2022/11/03 06:18:23;;;;;;;48.95;43.08;;;;;;;12.03;100.00;101778.91;5040533;28;20057;-83
2022/11/03 06:20:54;;;;;;;48.17;43.65;;;;;;;12.24;100.00;101775.41;5046528;28;20136;-83
2022/11/03 06:23:23;;;;;;;48.40;43.42;;;;;;;12.33;100.00;101777.75;5043695;28;20485;-84
2022/11/03 06:25:52;;;;;;;49.92;41.45;;;;;;;12.52;100.00;101791.44;5045882;28;20052;-84
2022/11/03 06:28:22;;;;;;;49.13;40.95;;;;;;;12.80;100.00;101780.81;5046173;28;20469;-84
2022/11/03 06:30:49;;;;;;;47.42;43.25;;;;;;;13.13;100.00;101777.50;5046069;28;20041;-83
2022/11/03 06:33:22;;;;;;;45.15;41.50;;;;;;;12.85;100.00;101775.69;5044994;28;20114;-83
2022/11/03 06:35:51;;;;;;;49.13;45.17;;;;;;;13.65;100.00;101787.63;5049707;28;20050;-84
2022/11/03 06:38:20;;;;;;;49.92;45.50;;;;;;;13.94;100.00;101788.31;5054614;28;20450;-82
2022/11/03 06:40:51;;;;;;;52.05;47.80;;;;;;;14.36;100.00;101786.31;5044849;28;20052;-83
2022/11/03 06:43:21;;;;;;;52.88;48.50;;;;;;;14.70;100.00;101792.50;5051259;28;20061;-82
2022/11/03 06:45:53;;;;;;;47.50;43.78;;;;;;;14.97;100.00;101796.78;5046126;28;20119;-82
2022/11/03 06:48:28;;;;;;;50.05;45.55;;;;;;;15.22;100.00;101794.28;5044692;28;20053;-84
2022/11/03 06:50:56;;;;;;;47.30;43.53;;;;;;;15.54;100.00;101802.41;5050532;28;20073;-83
2022/11/03 06:53:26;;;;;;;50.50;46.33;;;;;;;15.98;100.00;101804.28;5041894;28;20115;-83
2022/11/03 06:55:55;;;;;;;47.15;42.90;;;;;;;15.17;100.00;101799.44;5048814;28;20049;-83
2022/11/03 06:58:29;;;;;;;50.60;46.70;;;;;;;16.06;100.00;101805.84;5045962;28;20076;-83
2022/11/03 07:00:58;;;;;;;48.70;44.75;;;;;;;16.42;100.00;101805.19;5046088;28;20057;-83
2022/11/03 07:03:29;;;;;;;51.50;47.25;;;;;;;16.57;100.00;101804.06;5046075;28;20070;-83
2022/11/03 07:05:58;;;;;;;50.92;46.08;;;;;;;16.59;100.00;101810.03;5047213;28;20492;-82
2022/11/03 07:08:28;;;;;;;48.15;44.45;;;;;;;16.78;100.00;101806.38;5045498;28;20049;-82
2022/11/03 07:11:02;;;;;;;46.97;43.05;;;;;;;16.96;100.00;101800.22;5041603;28;20072;-83
2022/11/03 07:13:32;;;;;;;48.50;45.00;;;;;;;17.36;100.00;101810.50;5048011;28;20118;-82
2022/11/03 07:15:59;;;;;;;50.10;46.40;;;;;;;17.38;100.00;101806.56;5042466;28;20050;-82
2022/11/03 07:18:30;;;;;;;50.83;46.38;;;;;;;17.30;100.00;101804.16;5037530;28;20448;-82
2022/11/03 07:20:58;;;;;;;46.88;42.85;;;;;;;17.18;100.00;101816.69;5045804;28;20135;-82
2022/11/03 07:23:29;;;;;;;391.85;241.95;;;;;;;17.74;100.00;101812.94;5044705;28;20485;-82
2022/11/03 07:25:59;;;;;;;651.28;432.40;;;;;;;17.70;100.00;101811.75;5045607;28;20049;-82
2022/11/03 07:28:31;;;;;;;286.35;160.52;;;;;;;17.82;100.00;101818.03;5050622;28;20493;-81
2022/11/03 07:31:00;;;;;;;644.05;370.67;;;;;;;18.14;100.00;101814.28;5046027;28;20535;-82
2022/11/03 07:33:29;;;;;;;276.73;135.80;;;;;;;18.21;100.00;101815.00;5040307;28;20084;-82
2022/11/03 07:35:59;;;;;;;1417.80;775.90;;;;;;;18.23;100.00;101827.16;5046672;28;20557;-82
2022/11/03 07:38:28;;;;;;;446.23;254.93;;;;;;;18.05;100.00;101819.16;5047892;28;20067;-81
2022/11/03 07:40:59;;;;;;;199.95;125.65;;;;;;;18.21;100.00;101828.44;5047444;28;20053;-84
2022/11/03 07:43:37;;;;;;;321.87;221.37;;;;;;;18.06;100.00;101824.31;5046966;28;20532;-86
2022/11/03 07:46:14;;;;;;;721.40;451.70;;;;;;;18.31;100.00;101826.84;5035905;28;20871;-86
2022/11/03 07:48:45;;;;;;;363.88;187.27;;;;;;;18.68;100.00;101823.97;5051474;28;20063;-84
2022/11/03 07:51:18;;;;;;;55.72;50.20;;;;;;;19.07;100.00;101810.88;5043350;28;20405;-83
2022/11/03 07:53:47;;;;;;;139.00;91.32;;;;;;;19.06;100.00;101830.75;5048163;28;20049;-83
2022/11/03 07:56:18;;;;;;;58.03;51.78;;;;;;;18.75;100.00;101822.00;5040638;28;20049;-85
2022/11/03 07:58:47;;;;;;;87.43;67.65;;;;;;;18.70;100.00;101815.66;5045140;28;20463;-86
2022/11/03 08:01:28;;;;;;;101.15;79.05;;;;;;;19.29;100.00;101808.38;5044346;28;20531;-85
2022/11/03 08:03:59;;;;;;;43.58;40.30;;;;;;;19.43;100.00;101814.31;5042731;28;20055;-82
2022/11/03 08:06:26;;;;;;;41.17;38.05;;;;;;;18.95;100.00;101818.16;5052058;28;20397;-84
2022/11/03 08:08:52;;;;;;;44.35;41.03;;;;;;;19.23;100.00;101809.31;5045912;28;20080;-82
2022/11/03 08:11:21;;;;;;;85.05;61.47;;;;;;;19.77;100.00;101815.28;5049737;28;20111;-82
2022/11/03 08:13:48;;;;;;;49.20;44.55;;;;;;;19.44;100.00;101816.78;5044109;28;20087;-83
2022/11/03 08:16:15;;;;;;;49.03;44.22;;;;;;;18.61;100.00;101819.72;5046508;28;20118;-82
2022/11/03 08:18:42;;;;;;;58.10;47.88;;;;;;;19.58;100.00;101808.44;5035111;28;20050;-83
2022/11/03 08:21:09;;;;;;;47.60;43.22;;;;;;;19.81;98.78;101800.25;5043797;28;20556;-81
2022/11/03 08:23:35;;;;;;;47.90;43.45;;;;;;;19.84;100.00;101805.16;5043551;28;20451;-82
2022/11/03 08:26:02;;;;;;;48.50;43.85;;;;;;;19.95;94.44;101803.50;5046051;28;20053;-82
2022/11/03 08:28:32;;;;;;;66.90;51.40;;;;;;;19.89;93.29;101802.56;5047758;28;20045;-82
2022/11/03 08:31:03;;;;;;;46.95;42.75;;;;;;;20.19;94.31;101789.88;5042616;28;20108;-83
2022/11/03 08:33:30;;;;;;;42.08;38.90;;;;;;;20.01;97.52;101791.75;5051849;28;20058;-83
2022/11/03 08:35:57;;;;;;;52.17;46.70;;;;;;;20.96;89.84;101781.91;5045146;28;20119;-82
2022/11/03 08:38:23;;;;;;;48.03;43.45;;;;;;;20.64;88.68;101781.72;5045700;28;20111;-83
2022/11/03 08:40:50;;;;;;;45.58;42.25;;;;;;;20.20;92.32;101792.31;5047714;28;20463;-83
2022/11/03 08:43:17;;;;;;;51.92;47.60;;;;;;;19.80;96.61;101790.53;5048148;28;20053;-83
2022/11/03 08:45:45;;;;;;;46.22;42.92;;;;;;;19.82;96.57;101784.94;5044584;28;20118;-83
2022/11/03 08:48:12;;;;;;;46.05;42.53;;;;;;;20.16;95.88;101793.88;5035589;28;20107;-82
2022/11/03 08:50:40;;;;;;;47.90;44.15;;;;;;;19.83;95.62;101790.06;5046028;28;20061;-83
2022/11/03 08:53:07;;;;;;;45.45;42.45;;;;;;;19.71;98.12;101792.00;5040864;28;20057;-83
2022/11/03 08:55:34;;;;;;;46.47;43.67;;;;;;;19.74;97.52;101791.50;5047987;28;20118;-82
2022/11/03 08:58:00;;;;;;;46.95;43.45;;;;;;;19.68;98.52;101792.47;5044647;28;20045;-85
2022/11/03 09:00:27;;;;;;;46.60;43.08;;;;;;;20.65;93.38;101785.25;5043971;28;20130;-82
2022/11/03 09:02:56;;;;;;;49.67;46.10;;;;;;;20.27;92.00;101786.75;5049921;28;20049;-84
2022/11/03 09:05:23;;;;;;;51.35;47.42;;;;;;;19.98;93.52;101786.81;5046987;28;20056;-83
2022/11/03 09:07:50;;;;;;;49.10;45.58;;;;;;;20.09;95.14;101780.56;5039446;28;20057;-83
2022/11/03 09:10:16;;;;;;;50.33;46.90;;;;;;;20.52;89.54;101768.31;5044248;28;20046;-82
2022/11/03 09:12:43;;;;;;;50.78;47.63;;;;;;;20.15;90.86;101767.94;5050844;28;20559;-82
2022/11/03 09:15:11;;;;;;;48.70;44.97;;;;;;;20.02;91.74;101769.09;5040728;28;20118;-85
2022/11/03 09:17:38;;;;;;;48.67;44.95;;;;;;;20.91;91.14;101764.81;5047673;28;20049;-85
2022/11/03 09:20:08;;;;;;;51.15;47.03;;;;;;;21.30;81.43;101773.66;5043517;28;20061;-85
2022/11/03 09:22:35;;;;;;;46.55;43.33;;;;;;;21.06;84.89;101759.63;5043226;28;20470;-85
2022/11/03 09:25:03;;;;;;;49.30;45.30;;;;;;;20.92;80.45;101763.75;5043021;28;20057;-84
2022/11/03 09:27:30;;;;;;;45.90;42.60;;;;;;;20.97;85.78;101755.72;5041054;28;20052;-84
2022/11/03 09:29:57;;;;;;;48.53;45.30;;;;;;;21.34;77.41;101750.50;5045471;28;20490;-84
2022/11/03 09:32:25;;;;;;;43.03;40.10;;;;;;;21.07;77.92;101752.34;5042095;28;20053;-83
2022/11/03 09:34:52;;;;;;;42.95;40.13;;;;;;;21.32;79.84;101749.94;5044905;28;20045;-82
2022/11/03 09:37:21;;;;;;;45.63;42.42;;;;;;;21.78;74.93;101749.63;5043162;28;20095;-82
2022/11/03 09:39:48;;;;;;;45.03;41.72;;;;;;;21.64;72.23;101746.53;5042688;28;20593;-82
2022/11/03 09:42:16;;;;;;;44.10;41.20;;;;;;;21.83;70.51;101745.09;5045610;28;20127;-81
2022/11/03 09:44:45;;;;;;;45.50;42.47;;;;;;;22.70;64.46;101747.66;5040703;28;20119;-85
2022/11/03 09:47:20;;;;;;;46.08;42.90;;;;;;;22.40;63.49;101735.56;5042419;28;20072;-82
2022/11/03 09:49:47;;;;;;;46.72;43.33;;;;;;;21.86;67.70;101733.75;5039057;28;20056;-83
2022/11/03 09:52:18;;;;;;;45.40;42.10;;;;;;;21.65;68.51;101729.22;5043091;28;20049;-84
2022/11/03 09:54:47;;;;;;;44.10;40.90;;;;;;;21.82;72.23;101726.44;5042450;28;20056;-83
2022/11/03 09:57:17;;;;;;;44.78;41.67;;;;;;;21.48;67.66;101729.31;5042926;28;20122;-84
2022/11/03 09:59:49;;;;;;;46.17;42.92;;;;;;;22.24;65.25;101736.50;5041780;28;20050;-81
2022/11/03 10:02:25;;;;;;;48.15;44.70;;;;;;;21.37;69.42;101724.91;5046347;28;20053;-81
2022/11/03 10:04:53;;;;;;;48.22;44.67;;;;;;;22.02;66.12;101721.16;5049518;28;20538;-81
2022/11/03 10:07:21;;;;;;;48.42;44.95;;;;;;;22.74;62.30;101722.50;5046688;28;20539;-82
2022/11/03 10:09:51;;;;;;;47.78;44.30;;;;;;;22.04;63.00;101708.22;5046919;28;20126;-82
2022/11/03 10:12:19;;;;;;;46.40;43.38;;;;;;;22.33;64.00;101706.03;5050081;28;20053;-83
2022/11/03 10:14:46;;;;;;;45.05;42.10;;;;;;;22.24;62.91;101712.16;5045733;28;20049;-81
2022/11/03 10:17:17;;;;;;;45.30;42.53;;;;;;;22.07;64.38;101698.78;5048366;28;20049;-82
2022/11/03 10:19:46;;;;;;;50.47;46.78;;;;;;;22.36;62.52;101699.25;5049696;28;20107;-82
2022/11/03 10:22:14;;;;;;;46.25;42.90;;;;;;;23.25;58.16;101683.97;5047252;28;20110;-84
2022/11/03 10:24:43;;;;;;;52.33;48.55;;;;;;;22.58;54.89;101683.69;5044214;28;20111;-81
2022/11/03 10:27:24;;;;;;;46.78;43.67;;;;;;;22.60;56.44;101678.84;5044120;28;20041;-81
2022/11/03 10:30:08;;;;;;;45.00;41.58;;;;;;;21.80;63.72;101685.31;5045296;28;20120;-82
2022/11/03 10:32:35;;;;;;;44.05;40.95;;;;;;;21.77;62.69;101685.81;5049604;28;20049;-84
2022/11/03 10:35:03;;;;;;;45.53;42.38;;;;;;;21.83;60.33;101668.56;5053927;28;20045;-85
2022/11/03 10:37:39;;;;;;;44.85;41.60;;;;;;;22.48;56.10;101669.28;5046473;28;20048;-83
2022/11/03 10:40:34;;;;;;;45.50;42.25;;;;;;;23.14;55.32;101653.31;5046144;28;20049;-86
2022/11/03 10:43:02;;;;;;;46.72;43.33;;;;;;;22.42;57.91;101649.50;5042605;28;20123;-85
2022/11/03 10:45:33;;;;;;;43.72;40.45;;;;;;;22.29;56.27;101648.06;5048434;28;20056;-81
2022/11/03 10:48:01;;;;;;;43.05;40.13;;;;;;;22.60;55.04;101645.53;5036939;28;20068;-81
2022/11/03 10:50:28;;;;;;;43.75;40.38;;;;;;;22.68;56.64;101646.91;5043226;28;20046;-82
2022/11/03 10:52:56;;;;;;;51.97;47.63;;;;;;;22.93;54.80;101635.34;5045440;28;20049;-83
2022/11/03 10:55:24;;;;;;;48.67;45.20;;;;;;;22.02;56.70;101648.13;5049569;28;20053;-81
2022/11/03 10:57:54;;;;;;;46.90;43.72;;;;;;;21.19;59.38;101632.28;5046701;28;20053;-81
2022/11/03 11:00:25;;;;;;;47.47;44.47;;;;;;;21.12;61.05;101630.84;5046300;28;20045;-81
2022/11/03 11:02:57;;;;;;;44.20;41.20;;;;;;;21.59;62.40;101632.94;5041823;28;20049;-81
2022/11/03 11:05:24;;;;;;;44.55;41.47;;;;;;;22.67;54.16;101612.81;5045043;28;20417;-81
2022/11/03 11:07:53;;;;;;;47.28;44.00;;;;;;;22.74;55.88;101616.88;5050608;28;20049;-81
2022/11/03 11:10:23;;;;;;;45.80;42.58;;;;;;;22.44;56.87;101623.00;5044855;28;20056;-81
2022/11/03 11:13:27;;;;;;;45.08;42.10;;;;;;;22.73;55.42;101609.84;5038563;28;20068;-82
2022/11/03 11:15:56;;;;;;;49.42;46.50;;;;;;;22.63;56.34;101601.66;5045208;28;20448;-83
2022/11/03 11:19:09;;;;;;;49.00;45.53;;;;;;;22.69;56.43;101602.50;5043378;28;20068;-83
2022/11/03 11:22:00;;;;;;;46.60;43.90;;;;;;;22.97;52.45;101604.00;5045541;28;20053;-83
2022/11/03 11:25:01;;;;;;;45.65;42.38;;;;;;;24.06;50.76;101601.03;5045651;28;20308;-83
2022/11/03 11:27:57;;;;;;;44.00;41.30;;;;;;;23.31;51.60;101591.56;5047563;28;20517;-83
2022/11/03 11:31:02;;;;;;;46.53;43.63;;;;;;;23.87;49.67;101593.44;5045079;28;20458;-83
2022/11/03 11:33:33;;;;;;;47.42;44.58;;;;;;;23.95;49.35;101589.38;5050924;28;20434;-84
2022/11/03 11:36:19;;;;;;;45.22;42.38;;;;;;;24.76;46.25;101584.78;5044489;28;20053;-83
2022/11/03 11:39:04;;;;;;;48.42;44.72;;;;;;;23.80;49.11;101589.41;5042513;28;20046;-83